Time;durP1;ratioP1;P1;durP2;ratioP2;P2;SDS_P1;SDS_P2;PMS_P1;PMS_P2;Temp;Humidity;BMP_temperature;BMP_pressure;BME280_temperature;BME280_humidity;BME280_pressure;Samples;Min_cycle;Max_cycle;Signal;HPM_P1;HPM_P2
2022/06/09 00:01:53;;;;;;;6.50;2.20;;;15.60;64.00;;;;;;5034902;28;46271;-63
2022/06/09 00:04:30;;;;;;;6.90;1.70;;;15.50;64.20;;;;;;5036525;28;46404;-60
2022/06/09 00:07:02;;;;;;;4.10;1.70;;;15.50;65.00;;;;;;5033047;28;46374;-61
2022/06/09 00:09:32;;;;;;;8.07;1.70;;;15.40;65.90;;;;;;5033875;28;46497;-61
2022/06/09 00:11:58;;;;;;;5.20;1.47;;;15.40;66.50;;;;;;5029248;28;46585;-61
2022/06/09 00:14:24;;;;;;;5.20;1.87;;;15.30;66.70;;;;;;5033566;28;46495;-61
2022/06/09 00:16:49;;;;;;;4.07;2.10;;;15.30;66.80;;;;;;5034462;28;46409;-61
2022/06/09 00:19:18;;;;;;;4.17;1.67;;;15.30;67.20;;;;;;5030986;28;46411;-61
2022/06/09 00:21:45;;;;;;;3.47;2.17;;;15.30;67.80;;;;;;5031835;28;46399;-60
2022/06/09 00:24:11;;;;;;;3.13;1.60;;;15.20;67.80;;;;;;5032249;28;46409;-61
2022/06/09 00:26:37;;;;;;;4.77;1.73;;;15.20;68.10;;;;;;5031173;28;46517;-61
2022/06/09 00:29:03;;;;;;;4.57;1.60;;;15.20;68.20;;;;;;5029835;28;45878;-61
2022/06/09 00:31:29;;;;;;;6.00;1.80;;;15.20;68.10;;;;;;5029749;28;47896;-61
2022/06/09 00:33:54;;;;;;;8.47;2.63;;;15.20;68.10;;;;;;5031216;28;45791;-61
2022/06/09 00:36:20;;;;;;;4.07;1.73;;;15.30;67.50;;;;;;5030000;28;46395;-62
2022/06/09 00:38:46;;;;;;;4.50;1.73;;;15.30;67.20;;;;;;5029262;28;45876;-62
2022/06/09 00:41:12;;;;;;;5.03;2.00;;;15.30;66.80;;;;;;5029259;28;46608;-60
2022/06/09 00:43:41;;;;;;;4.97;2.17;;;15.40;66.90;;;;;;5028153;28;46266;-61
2022/06/09 00:46:10;;;;;;;5.93;2.13;;;15.40;66.80;;;;;;5033917;28;46284;-62
2022/06/09 00:48:58;;;;;;;4.40;2.00;;;15.30;66.80;;;;;;5036102;28;47197;-60
2022/06/09 00:51:44;;;;;;;7.33;1.97;;;15.30;66.90;;;;;;5032685;28;46327;-60
2022/06/09 00:54:23;;;;;;;7.53;1.73;;;15.30;66.70;;;;;;5034482;28;46367;-63
2022/06/09 00:56:56;;;;;;;6.47;1.87;;;15.30;66.50;;;;;;5033905;28;46650;-62
2022/06/09 00:59:26;;;;;;;3.60;1.90;;;15.30;66.50;;;;;;5032610;28;46391;-62
2022/06/09 01:01:57;;;;;;;3.90;1.73;;;15.20;66.70;;;;;;5026638;28;48112;-62
2022/06/09 01:04:24;;;;;;;4.60;1.97;;;15.10;66.90;;;;;;5033571;28;46347;-62
2022/06/09 01:07:02;;;;;;;4.80;1.70;;;15.10;67.00;;;;;;5028376;28;46381;-62
2022/06/09 01:09:30;;;;;;;6.23;1.60;;;15.10;67.20;;;;;;5033970;28;46307;-62
2022/06/09 01:11:56;;;;;;;6.63;1.90;;;15.00;67.70;;;;;;5029093;28;46402;-62
2022/06/09 01:14:32;;;;;;;6.70;1.67;;;14.90;68.00;;;;;;5032897;28;46839;-62
2022/06/09 01:17:26;;;;;;;4.37;1.83;;;14.90;68.10;;;;;;5030787;28;46397;-61
2022/06/09 01:20:06;;;;;;;7.90;1.60;;;14.80;68.30;;;;;;5032144;28;46533;-62
2022/06/09 01:22:50;;;;;;;7.20;1.63;;;14.80;68.50;;;;;;5030203;28;47153;-63
2022/06/09 01:25:34;;;;;;;4.50;1.80;;;14.70;68.80;;;;;;5028805;28;46446;-61
2022/06/09 01:28:18;;;;;;;3.67;1.27;;;14.70;68.80;;;;;;5028178;28;46493;-62
2022/06/09 01:30:59;;;;;;;3.90;1.83;;;14.60;68.70;;;;;;5035114;28;46488;-62
2022/06/09 01:33:56;;;;;;;4.63;1.40;;;14.60;68.70;;;;;;5030991;28;46466;-62
2022/06/09 01:36:36;;;;;;;3.50;1.67;;;14.50;68.60;;;;;;5026992;28;46451;-62
2022/06/09 01:39:05;;;;;;;6.77;2.20;;;14.50;68.60;;;;;;5033004;28;46398;-62
2022/06/09 01:41:31;;;;;;;8.23;1.30;;;14.40;68.50;;;;;;5029227;28;46374;-62
2022/06/09 01:43:57;;;;;;;5.73;2.10;;;14.40;68.60;;;;;;5032176;28;46366;-62
2022/06/09 01:46:30;;;;;;;3.27;1.70;;;14.40;68.50;;;;;;5029718;28;46311;-62
2022/06/09 01:49:04;;;;;;;4.93;1.83;;;14.40;68.50;;;;;;5032589;28;46690;-62
2022/06/09 01:51:33;;;;;;;3.90;1.80;;;14.40;68.50;;;;;;5027759;28;46440;-62
2022/06/09 01:54:05;;;;;;;3.67;2.40;;;14.40;68.50;;;;;;5033467;28;46332;-62
2022/06/09 01:56:39;;;;;;;3.93;1.80;;;14.30;68.40;;;;;;5037228;28;46521;-62
2022/06/09 01:59:19;;;;;;;3.40;1.50;;;14.30;68.40;;;;;;5029298;28;46398;-62
2022/06/09 02:01:57;;;;;;;6.20;1.97;;;14.20;68.30;;;;;;5029693;28;46651;-61
2022/06/09 02:04:27;;;;;;;2.30;1.40;;;14.20;68.30;;;;;;5030438;28;46753;-62
2022/06/09 02:06:54;;;;;;;10.47;2.10;;;14.20;68.30;;;;;;5027425;28;46321;-61
2022/06/09 02:09:28;;;;;;;4.43;2.20;;;14.20;68.30;;;;;;5027517;28;46428;-61
2022/06/09 02:11:56;;;;;;;3.60;1.77;;;14.20;68.30;;;;;;5028102;28;46492;-62
2022/06/09 02:14:25;;;;;;;5.10;1.70;;;14.20;68.30;;;;;;5021807;28;47033;-62
2022/06/09 02:16:51;;;;;;;7.13;1.57;;;14.20;68.30;;;;;;5021791;28;45775;-62
2022/06/09 02:19:17;;;;;;;3.23;1.70;;;14.20;68.30;;;;;;5030450;28;46524;-61
2022/06/09 02:21:43;;;;;;;4.07;1.80;;;14.30;68.40;;;;;;5028587;28;46776;-60
2022/06/09 02:24:08;;;;;;;2.97;1.50;;;14.40;67.90;;;;;;5030088;28;47290;-61
2022/06/09 02:26:34;;;;;;;4.63;1.77;;;14.40;67.60;;;;;;5030463;28;46427;-61
2022/06/09 02:29:00;;;;;;;4.27;2.03;;;14.50;67.40;;;;;;5028949;28;46411;-61
2022/06/09 02:31:26;;;;;;;9.77;2.17;;;14.60;67.30;;;;;;5034771;28;46478;-61
2022/06/09 02:33:54;;;;;;;3.67;1.77;;;14.60;67.10;;;;;;5032251;28;47256;-61
2022/06/09 02:36:20;;;;;;;3.50;1.50;;;14.70;67.10;;;;;;5031675;28;46591;-60
2022/06/09 02:38:46;;;;;;;3.40;2.00;;;14.70;67.00;;;;;;5033413;28;46431;-61
2022/06/09 02:41:12;;;;;;;4.57;1.90;;;14.70;67.00;;;;;;5032435;28;47085;-61
2022/06/09 02:43:37;;;;;;;2.80;1.67;;;14.70;67.10;;;;;;5034345;28;47356;-61
2022/06/09 02:46:04;;;;;;;4.33;2.20;;;14.70;67.10;;;;;;5030014;28;46437;-61
2022/06/09 02:48:30;;;;;;;4.40;1.70;;;14.70;67.10;;;;;;5035778;28;46569;-61
2022/06/09 02:50:56;;;;;;;2.90;1.70;;;14.70;67.10;;;;;;5032571;28;46422;-60
2022/06/09 02:53:23;;;;;;;5.70;2.20;;;14.80;67.40;;;;;;5030678;28;46936;-61
2022/06/09 02:55:50;;;;;;;3.37;1.77;;;14.80;67.30;;;;;;5032380;28;46417;-61
2022/06/09 02:58:16;;;;;;;4.20;1.70;;;14.80;67.30;;;;;;5028106;28;46523;-61
2022/06/09 03:00:42;;;;;;;3.57;1.63;;;14.80;67.30;;;;;;5033287;28;46428;-61
2022/06/09 03:03:12;;;;;;;7.07;2.13;;;14.80;67.30;;;;;;5031411;28;46768;-61
2022/06/09 03:05:38;;;;;;;6.30;1.90;;;14.80;67.20;;;;;;5033462;28;46428;-61
2022/06/09 03:08:06;;;;;;;5.37;1.77;;;14.80;67.20;;;;;;5035245;28;46329;-61
2022/06/09 03:10:33;;;;;;;5.87;1.70;;;14.80;67.30;;;;;;5035921;28;46341;-61
2022/06/09 03:12:59;;;;;;;3.10;1.60;;;14.80;67.30;;;;;;5032502;28;47017;-61
2022/06/09 03:15:25;;;;;;;8.20;2.13;;;14.70;67.50;;;;;;5036164;28;46429;-61
2022/06/09 03:17:51;;;;;;;5.67;1.90;;;14.70;67.80;;;;;;5035260;28;46422;-61
2022/06/09 03:20:27;;;;;;;5.63;1.70;;;14.60;68.10;;;;;;5031500;28;46778;-61
2022/06/09 03:22:53;;;;;;;3.80;2.13;;;14.60;68.60;;;;;;5036231;28;46581;-61
2022/06/09 03:25:20;;;;;;;5.43;2.07;;;14.60;68.60;;;;;;5031007;28;46435;-62
2022/06/09 03:27:45;;;;;;;11.90;2.13;;;14.60;68.70;;;;;;5038214;28;46690;-62
2022/06/09 03:30:12;;;;;;;5.17;1.80;;;14.60;68.50;;;;;;5032782;28;46461;-61
2022/06/09 03:32:38;;;;;;;4.13;1.60;;;14.60;68.40;;;;;;5032196;28;46614;-61
2022/06/09 03:35:05;;;;;;;8.33;2.27;;;14.60;68.20;;;;;;5034441;28;45863;-61
2022/06/09 03:37:31;;;;;;;12.67;2.10;;;14.70;68.10;;;;;;5035179;28;46392;-61
2022/06/09 03:39:57;;;;;;;5.03;2.00;;;14.70;68.00;;;;;;5032479;28;46433;-61
2022/06/09 03:42:22;;;;;;;7.80;2.00;;;14.80;67.80;;;;;;5033319;28;48102;-61
2022/06/09 03:44:48;;;;;;;7.57;2.03;;;14.80;67.60;;;;;;5034466;28;46491;-61
2022/06/09 03:47:13;;;;;;;6.13;1.73;;;14.80;67.60;;;;;;5030307;28;46393;-63
2022/06/09 03:49:40;;;;;;;3.87;1.90;;;14.90;67.50;;;;;;5032000;28;46377;-62
2022/06/09 03:52:06;;;;;;;6.23;2.10;;;14.90;67.40;;;;;;5030854;28;46978;-62
2022/06/09 03:54:32;;;;;;;6.10;1.80;;;15.00;67.20;;;;;;5030343;28;46628;-61
2022/06/09 03:56:57;;;;;;;4.47;1.80;;;15.00;67.20;;;;;;5031361;28;45807;-62
2022/06/09 03:59:23;;;;;;;3.50;2.07;;;15.10;67.10;;;;;;5031964;28;46409;-62
2022/06/09 04:01:49;;;;;;;3.13;1.97;;;15.10;67.00;;;;;;5031870;28;46469;-61
2022/06/09 04:04:14;;;;;;;3.40;1.90;;;15.10;66.90;;;;;;5026818;28;46454;-61
2022/06/09 04:06:41;;;;;;;4.73;2.10;;;15.20;66.70;;;;;;5034124;28;46474;-62
2022/06/09 04:09:06;;;;;;;4.10;1.73;;;15.20;66.50;;;;;;5031040;28;46327;-62
2022/06/09 04:11:32;;;;;;;8.67;2.00;;;15.20;66.60;;;;;;5033102;28;46435;-62
2022/06/09 04:13:59;;;;;;;5.70;2.10;;;15.30;66.70;;;;;;5027870;28;46477;-61
2022/06/09 04:16:35;;;;;;;3.43;2.13;;;15.20;66.80;;;;;;5029699;28;46299;-61
2022/06/09 04:19:05;;;;;;;6.47;3.17;;;15.20;66.90;;;;;;5028608;28;46401;-62
2022/06/09 04:21:32;;;;;;;4.83;2.10;;;15.30;66.90;;;;;;5030845;28;46430;-62
2022/06/09 04:23:59;;;;;;;11.47;2.70;;;15.30;66.90;;;;;;5032170;28;46391;-61
2022/06/09 04:26:27;;;;;;;12.23;2.33;;;15.30;66.80;;;;;;5029383;28;45862;-61
2022/06/09 04:28:53;;;;;;;4.90;1.80;;;15.40;66.80;;;;;;5029143;28;46751;-61
2022/06/09 04:31:19;;;;;;;4.70;2.40;;;15.40;66.70;;;;;;5030204;28;47028;-61
2022/06/09 04:33:45;;;;;;;2.87;1.90;;;15.40;66.60;;;;;;5032196;28;46698;-63
2022/06/09 04:36:13;;;;;;;4.30;2.00;;;15.50;66.50;;;;;;5029334;28;46385;-61
2022/06/09 04:38:39;;;;;;;4.23;1.80;;;15.60;66.30;;;;;;5032885;28;46443;-62
2022/06/09 04:41:10;;;;;;;7.23;1.60;;;15.60;66.20;;;;;;5035573;28;46700;-62
2022/06/09 04:43:40;;;;;;;6.30;2.20;;;15.60;67.40;;;;;;5031884;28;46274;-62
2022/06/09 04:46:08;;;;;;;4.93;2.57;;;15.60;66.10;;;;;;5029887;28;46348;-62
2022/06/09 04:48:34;;;;;;;10.00;1.80;;;15.60;66.10;;;;;;5024313;28;46528;-61
2022/06/09 04:51:00;;;;;;;3.43;2.00;;;15.70;65.90;;;;;;5034018;28;46288;-61
2022/06/09 04:53:26;;;;;;;3.73;1.90;;;15.80;65.90;;;;;;5036189;28;46435;-61
2022/06/09 04:55:52;;;;;;;5.50;2.10;;;15.90;65.70;;;;;;5032615;28;46529;-61
2022/06/09 04:58:18;;;;;;;3.93;1.90;;;16.00;65.50;;;;;;5032913;28;46324;-61
2022/06/09 05:00:43;;;;;;;5.50;2.03;;;16.10;65.50;;;;;;5031860;28;47340;-61
2022/06/09 05:03:12;;;;;;;4.73;1.87;;;16.10;65.20;;;;;;5031704;28;46363;-61
2022/06/09 05:05:42;;;;;;;2.70;1.50;;;16.10;65.20;;;;;;5031844;28;46408;-61
2022/06/09 05:08:07;;;;;;;5.10;1.60;;;16.10;65.40;;;;;;5029554;28;46433;-62
2022/06/09 05:10:33;;;;;;;4.53;1.50;;;16.20;65.40;;;;;;5029347;28;46381;-61
2022/06/09 05:13:01;;;;;;;4.87;1.63;;;16.30;65.30;;;;;;5026115;28;46320;-61
2022/06/09 05:15:27;;;;;;;6.23;1.90;;;16.40;65.20;;;;;;5031428;28;46619;-61
2022/06/09 05:17:53;;;;;;;2.87;1.40;;;16.40;65.00;;;;;;5034090;28;46732;-61
2022/06/09 05:20:22;;;;;;;4.33;1.67;;;16.50;64.90;;;;;;5027115;28;46993;-61
2022/06/09 05:22:47;;;;;;;3.40;1.63;;;16.60;64.70;;;;;;5038587;28;46402;-61
2022/06/09 05:25:14;;;;;;;3.03;1.47;;;16.70;64.40;;;;;;5028447;28;46327;-62
2022/06/09 05:27:39;;;;;;;3.23;1.67;;;16.70;64.10;;;;;;5028854;28;46918;-60
2022/06/09 05:30:08;;;;;;;3.27;1.40;;;16.70;64.10;;;;;;5028708;28;47429;-61
2022/06/09 05:32:34;;;;;;;4.90;1.60;;;16.80;63.60;;;;;;5025922;28;46569;-62
2022/06/09 05:34:59;;;;;;;3.30;1.33;;;16.90;63.40;;;;;;5032923;28;45884;-62
2022/06/09 05:44:50;;;;;;;2.40;1.17;;;16.90;62.90;;;;;;5030938;28;46364;-63
2022/06/09 05:45:39;;;;;;;2.13;1.10;;;16.80;61.40;;;;;;5033746;28;46365;-61
2022/06/09 05:48:04;;;;;;;3.97;1.10;;;16.70;61.40;;;;;;5032592;28;46435;-61
2022/06/09 05:50:30;;;;;;;4.47;0.90;;;16.60;61.10;;;;;;5033033;28;46425;-61
2022/06/09 05:52:56;;;;;;;2.50;1.20;;;16.70;60.40;;;;;;5030864;28;46440;-62
2022/06/09 05:55:21;;;;;;;2.47;1.10;;;16.70;60.60;;;;;;5030285;28;46334;-61
2022/06/09 05:57:47;;;;;;;3.23;1.30;;;16.70;59.40;;;;;;5031879;28;46410;-62
2022/06/09 06:00:13;;;;;;;2.40;1.00;;;16.70;59.00;;;;;;5030122;28;47028;-62
2022/06/09 06:02:38;;;;;;;2.53;0.97;;;16.70;58.80;;;;;;5032670;28;46327;-61
2022/06/09 06:05:05;;;;;;;2.00;1.00;;;16.90;58.00;;;;;;5027879;28;46351;-61
2022/06/09 06:07:30;;;;;;;2.17;1.03;;;17.20;57.00;;;;;;5031406;28;46521;-61
2022/06/09 06:09:56;;;;;;;2.93;1.50;;;17.70;56.60;;;;;;5027807;28;46334;-61
2022/06/09 06:12:21;;;;;;;2.17;0.97;;;18.40;54.90;;;;;;5031013;28;46367;-60
2022/06/09 06:14:47;;;;;;;2.57;1.20;;;18.90;53.00;;;;;;5028357;28;46501;-63
2022/06/09 06:17:12;;;;;;;2.43;1.10;;;18.90;51.10;;;;;;5030415;28;46279;-62
2022/06/09 06:19:38;;;;;;;9.87;1.40;;;18.80;50.90;;;;;;5031024;28;47098;-63
2022/06/09 06:22:04;;;;;;;2.10;0.90;;;18.50;51.60;;;;;;5028801;28;46437;-62
2022/06/09 06:24:29;;;;;;;5.90;1.13;;;17.90;52.50;;;;;;5030543;28;46415;-63
2022/06/09 06:26:55;;;;;;;2.70;1.00;;;17.30;54.00;;;;;;5028099;28;46704;-62
2022/06/09 06:29:24;;;;;;;2.67;1.13;;;16.90;55.20;;;;;;5026637;28;46522;-62
2022/06/09 06:31:50;;;;;;;3.70;1.20;;;16.40;56.60;;;;;;5028503;28;46347;-62
2022/06/09 06:34:16;;;;;;;3.57;1.17;;;16.20;57.70;;;;;;5029080;28;46385;-63
2022/06/09 06:36:42;;;;;;;4.43;1.17;;;16.00;57.70;;;;;;5027351;28;46687;-62
2022/06/09 06:39:08;;;;;;;3.80;1.30;;;15.90;58.80;;;;;;5026968;28;47107;-63
2022/06/09 06:41:34;;;;;;;3.60;1.23;;;15.90;58.80;;;;;;5030121;28;46456;-62
2022/06/09 06:44:00;;;;;;;4.00;1.10;;;15.90;59.40;;;;;;5029787;28;46373;-62
2022/06/09 06:46:27;;;;;;;4.20;1.10;;;15.90;59.40;;;;;;5030707;28;45905;-63
2022/06/09 06:48:53;;;;;;;4.77;1.20;;;15.80;59.60;;;;;;5029448;28;46671;-61
2022/06/09 06:51:19;;;;;;;2.63;1.00;;;15.60;60.40;;;;;;5031674;28;46451;-61
2022/06/09 06:53:45;;;;;;;4.63;1.47;;;15.40;61.50;;;;;;5030638;28;46437;-61
2022/06/09 06:56:11;;;;;;;3.53;1.30;;;15.20;62.60;;;;;;5031795;28;46331;-61
2022/06/09 06:58:37;;;;;;;2.83;1.17;;;15.20;63.30;;;;;;5028463;28;47288;-61
2022/06/09 07:01:03;;;;;;;2.70;1.53;;;15.10;63.60;;;;;;5027894;28;46380;-62
2022/06/09 07:03:29;;;;;;;4.83;1.10;;;15.10;63.50;;;;;;5028813;28;46464;-62
2022/06/09 07:05:55;;;;;;;3.07;1.13;;;15.10;64.10;;;;;;5034480;28;46354;-62
2022/06/09 07:08:24;;;;;;;2.83;1.10;;;15.20;64.30;;;;;;5028395;28;46951;-61
2022/06/09 07:10:50;;;;;;;3.33;1.10;;;15.20;64.40;;;;;;5030778;28;46590;-62
2022/06/09 07:13:16;;;;;;;4.63;1.40;;;15.30;64.20;;;;;;5035838;28;46439;-61
2022/06/09 07:15:41;;;;;;;3.23;1.27;;;15.40;64.10;;;;;;5029315;28;46386;-61
2022/06/09 07:18:09;;;;;;;3.83;1.80;;;15.40;64.00;;;;;;5031603;28;47283;-61
2022/06/09 07:20:35;;;;;;;4.97;1.87;;;15.50;63.50;;;;;;5034392;28;46616;-62
2022/06/09 07:23:01;;;;;;;4.90;1.97;;;15.60;63.40;;;;;;5036479;28;46439;-62
2022/06/09 07:25:27;;;;;;;4.83;1.67;;;15.80;63.20;;;;;;5034147;28;46502;-61
2022/06/09 07:27:54;;;;;;;4.37;1.77;;;15.80;62.90;;;;;;5037836;28;46646;-62
2022/06/09 07:30:20;;;;;;;3.10;1.80;;;16.00;62.30;;;;;;5039611;28;45851;-62
2022/06/09 07:32:46;;;;;;;4.63;2.00;;;16.00;63.40;;;;;;5040284;28;46441;-62
2022/06/09 07:35:15;;;;;;;4.60;2.00;;;16.10;62.40;;;;;;5035490;28;46388;-62
2022/06/09 07:37:41;;;;;;;5.97;2.43;;;16.30;62.00;;;;;;5029840;28;47187;-62
2022/06/09 07:40:07;;;;;;;3.97;1.80;;;16.50;61.30;;;;;;5030585;28;46568;-61
2022/06/09 07:42:33;;;;;;;6.97;1.97;;;16.70;60.70;;;;;;5029232;28;46335;-62
2022/06/09 07:44:59;;;;;;;6.70;2.30;;;16.90;60.10;;;;;;5033072;28;45801;-63
2022/06/09 07:47:25;;;;;;;3.17;1.87;;;17.30;59.10;;;;;;5027827;28;47042;-61
2022/06/09 07:49:51;;;;;;;3.90;1.50;;;17.70;58.80;;;;;;5028517;28;46515;-62
2022/06/09 07:52:17;;;;;;;5.83;1.90;;;17.90;57.30;;;;;;5033305;28;46450;-61
2022/06/09 07:54:43;;;;;;;7.13;2.07;;;18.30;56.60;;;;;;5029387;28;46445;-62
2022/06/09 07:57:08;;;;;;;6.23;1.73;;;18.50;55.30;;;;;;5031408;28;46649;-61
2022/06/09 07:59:35;;;;;;;7.03;1.50;;;18.50;54.80;;;;;;5033239;28;46610;-62
2022/06/09 08:02:01;;;;;;;2.70;1.50;;;18.50;54.60;;;;;;5029518;28;46461;-62
2022/06/09 08:04:27;;;;;;;6.90;2.30;;;18.60;53.50;;;;;;5037798;28;46489;-61
2022/06/09 08:06:52;;;;;;;10.13;2.20;;;18.90;53.50;;;;;;5035463;28;46448;-62
2022/06/09 08:09:18;;;;;;;7.17;2.17;;;19.20;52.40;;;;;;5033020;28;46370;-63
2022/06/09 08:11:46;;;;;;;5.53;1.90;;;19.40;51.60;;;;;;5034530;28;46533;-61
2022/06/09 08:14:13;;;;;;;5.03;1.50;;;19.60;51.30;;;;;;5032613;28;46421;-61
2022/06/09 08:16:39;;;;;;;5.10;1.93;;;19.80;49.90;;;;;;5032835;28;46632;-62
2022/06/09 08:19:05;;;;;;;5.80;1.80;;;19.90;48.10;;;;;;5029877;28;46495;-63
2022/06/09 08:21:31;;;;;;;4.77;1.80;;;20.00;47.70;;;;;;5033689;28;45981;-62
2022/06/09 08:23:57;;;;;;;6.27;2.00;;;20.20;47.80;;;;;;5029817;28;46457;-62
2022/06/09 08:26:23;;;;;;;5.13;1.70;;;20.00;47.30;;;;;;5035377;28;47077;-61
2022/06/09 08:28:49;;;;;;;12.50;1.73;;;19.60;47.30;;;;;;5030080;28;46390;-62
2022/06/09 08:31:14;;;;;;;5.17;2.10;;;19.50;47.20;;;;;;5028727;28;46466;-62
2022/06/09 08:33:40;;;;;;;4.07;1.30;;;19.20;47.00;;;;;;5031272;28;46229;-62
2022/06/09 08:36:06;;;;;;;6.20;1.83;;;18.60;48.60;;;;;;5034975;28;46425;-62
2022/06/09 08:38:32;;;;;;;6.90;1.60;;;18.00;49.60;;;;;;5031695;28;46311;-62
2022/06/09 08:41:08;;;;;;;5.77;1.90;;;17.50;51.30;;;;;;5030326;28;46513;-62
2022/06/09 08:44:04;;;;;;;7.03;1.40;;;17.00;52.20;;;;;;5033338;28;46485;-62
2022/06/09 08:46:42;;;;;;;9.43;1.33;;;16.70;52.30;;;;;;5031569;28;46535;-62
2022/06/09 08:49:33;;;;;;;5.70;1.40;;;16.50;52.50;;;;;;5030495;28;45826;-64
2022/06/09 08:52:04;;;;;;;6.73;1.80;;;16.40;52.20;;;;;;5033266;28;46748;-62
2022/06/09 08:54:35;;;;;;;3.13;1.13;;;16.40;52.10;;;;;;5031480;28;46393;-63
2022/06/09 08:57:05;;;;;;;6.53;1.63;;;16.60;52.00;;;;;;5028804;28;46724;-62
2022/06/09 08:59:37;;;;;;;9.37;1.40;;;16.90;52.00;;;;;;5027439;28;46506;-62
2022/06/09 09:02:20;;;;;;;6.27;1.40;;;17.10;51.90;;;;;;5035040;28;46473;-62
2022/06/09 09:04:53;;;;;;;9.37;2.10;;;17.20;51.70;;;;;;5031987;28;45910;-62
2022/06/09 09:07:26;;;;;;;6.70;1.60;;;17.60;52.10;;;;;;5030469;28;46574;-62
2022/06/09 09:10:13;;;;;;;3.50;1.30;;;18.00;51.50;;;;;;5031621;28;45762;-62
2022/06/09 09:13:05;;;;;;;5.93;1.30;;;18.30;50.80;;;;;;5029571;28;46506;-62
2022/06/09 09:15:39;;;;;;;13.80;1.70;;;18.60;49.90;;;;;;5031331;28;46383;-62
2022/06/09 09:18:23;;;;;;;5.13;1.47;;;18.60;49.10;;;;;;5030063;28;46444;-62
2022/06/09 09:21:13;;;;;;;4.80;1.20;;;18.80;48.70;;;;;;5030992;28;46370;-62
2022/06/09 09:23:50;;;;;;;4.20;1.47;;;19.50;47.20;;;;;;5028073;28;46614;-62
2022/06/09 09:26:53;;;;;;;7.20;1.60;;;19.60;46.50;;;;;;5029554;28;46481;-62
2022/06/09 09:29:48;;;;;;;5.17;1.30;;;19.80;44.90;;;;;;5028513;28;46574;-62
2022/06/09 09:32:23;;;;;;;6.23;1.20;;;20.00;43.50;;;;;;5031804;28;46536;-62
2022/06/09 09:34:51;;;;;;;4.57;1.30;;;20.10;43.30;;;;;;5027811;28;46446;-62
2022/06/09 09:37:26;;;;;;;8.07;1.70;;;20.50;42.90;;;;;;5027721;28;46805;-62
2022/06/09 09:40:00;;;;;;;4.17;1.43;;;20.60;42.10;;;;;;5024047;28;48020;-62
2022/06/09 09:42:30;;;;;;;4.83;1.17;;;20.60;41.80;;;;;;5031918;28;46382;-62
2022/06/09 09:44:58;;;;;;;5.53;1.40;;;20.50;40.60;;;;;;5027021;28;46390;-62
2022/06/09 09:47:26;;;;;;;2.80;1.33;;;20.50;40.90;;;;;;5032843;28;46485;-62
2022/06/09 09:49:56;;;;;;;4.87;1.73;;;20.60;40.80;;;;;;5028292;28;46228;-62
2022/06/09 09:52:44;;;;;;;9.30;1.63;;;21.00;40.30;;;;;;5034632;28;46825;-63
2022/06/09 09:55:25;;;;;;;7.00;1.43;;;21.30;38.90;;;;;;5032027;28;46449;-65
2022/06/09 09:58:28;;;;;;;3.63;1.30;;;21.70;38.30;;;;;;5030180;28;46628;-62
2022/06/09 10:01:01;;;;;;;3.73;1.13;;;21.40;35.40;;;;;;5027462;28;48288;-62
2022/06/09 10:09:19;;;;;;;6.67;1.60;;;21.30;34.50;;;;;;5026250;28;46537;-62
2022/06/09 10:11:54;;;;;;;10.80;1.40;;;21.70;34.10;;;;;;5026539;28;46397;-62
2022/06/09 10:14:39;;;;;;;2.80;1.00;;;21.80;34.40;;;;;;5028798;28;46382;-61
2022/06/09 10:17:18;;;;;;;3.53;1.20;;;21.90;34.00;;;;;;5024931;28;46268;-62
2022/06/09 10:19:52;;;;;;;6.63;1.40;;;21.70;33.40;;;;;;5036271;28;46489;-62
2022/06/09 10:22:22;;;;;;;3.20;1.00;;;21.00;34.50;;;;;;5028099;28;46450;-61
2022/06/09 10:24:56;;;;;;;6.07;1.43;;;20.60;34.70;;;;;;5031136;28;46482;-61
2022/06/09 10:27:31;;;;;;;5.73;1.30;;;20.10;36.90;;;;;;5028019;28;46463;-61
2022/06/09 10:30:03;;;;;;;5.83;1.60;;;19.60;38.50;;;;;;5031740;28;46422;-62
2022/06/09 10:32:42;;;;;;;5.53;1.50;;;19.40;40.00;;;;;;5031767;28;46285;-62
2022/06/09 10:35:31;;;;;;;4.97;1.50;;;19.30;40.60;;;;;;5032555;28;46436;-62
2022/06/09 10:38:18;;;;;;;6.63;1.57;;;19.60;40.50;;;;;;5029949;28;46512;-61
2022/06/09 10:40:55;;;;;;;6.67;1.60;;;19.90;40.00;;;;;;5030794;28;46398;-61
2022/06/09 10:43:54;;;;;;;4.90;1.43;;;20.00;39.40;;;;;;5030694;28;47132;-61
2022/06/09 10:46:28;;;;;;;7.83;1.53;;;20.10;39.30;;;;;;5033780;28;45739;-61
2022/06/09 10:55:14;;;;;;;4.43;1.10;;;19.10;40.80;;;;;;5034400;28;46711;-62
2022/06/09 10:57:55;;;;;;;6.13;1.33;;;18.70;41.70;;;;;;5035909;28;46414;-61
2022/06/09 11:00:28;;;;;;;5.43;1.50;;;18.50;42.30;;;;;;5034803;28;46405;-61
2022/06/09 11:02:56;;;;;;;2.80;1.20;;;18.50;44.10;;;;;;5031369;28;46382;-62
2022/06/09 11:05:49;;;;;;;4.97;1.20;;;18.70;42.20;;;;;;5032633;28;47280;-62
2022/06/09 11:08:35;;;;;;;5.50;1.43;;;19.20;41.80;;;;;;5033595;28;46469;-60
2022/06/09 11:11:15;;;;;;;6.03;1.40;;;19.70;40.80;;;;;;5031312;28;46389;-61
2022/06/09 11:14:15;;;;;;;4.80;1.73;;;20.00;40.20;;;;;;5030180;28;46420;-61
2022/06/09 11:16:49;;;;;;;5.63;1.30;;;20.30;39.60;;;;;;5031033;28;46555;-62
2022/06/09 11:19:37;;;;;;;4.10;1.37;;;20.30;40.10;;;;;;5030713;28;46424;-61
2022/06/09 11:22:29;;;;;;;6.37;1.60;;;20.30;40.20;;;;;;5031871;28;46623;-62
2022/06/09 11:25:45;;;;;;;5.97;1.30;;;20.50;40.20;;;;;;5033200;28;46482;-61
2022/06/09 11:28:34;;;;;;;4.60;1.50;;;20.50;40.50;;;;;;5030649;28;46158;-61
2022/06/09 11:31:16;;;;;;;5.07;1.40;;;20.50;40.40;;;;;;5032021;28;46560;-61
2022/06/09 11:34:17;;;;;;;4.57;1.47;;;20.70;39.50;;;;;;5030409;28;46471;-62
2022/06/09 11:36:59;;;;;;;6.87;1.40;;;20.50;38.20;;;;;;5032862;28;46291;-61
2022/06/09 11:39:42;;;;;;;9.23;1.63;;;20.30;36.60;;;;;;5031593;28;46359;-62
2022/06/09 11:42:29;;;;;;;4.60;2.00;;;20.30;36.30;;;;;;5030677;28;46514;-60
2022/06/09 11:44:59;;;;;;;6.03;1.20;;;20.30;36.00;;;;;;5029363;28;46275;-61
2022/06/09 11:47:30;;;;;;;3.03;1.27;;;20.50;35.40;;;;;;5033169;28;46488;-61
2022/06/09 11:50:00;;;;;;;7.10;1.43;;;20.50;34.50;;;;;;5029475;28;47251;-62
2022/06/09 11:52:30;;;;;;;2.90;1.00;;;20.40;34.50;;;;;;5033282;28;46410;-61
2022/06/09 11:55:00;;;;;;;3.60;1.10;;;19.80;34.90;;;;;;5032693;28;46431;-62
2022/06/09 11:57:45;;;;;;;4.13;1.30;;;19.70;35.30;;;;;;5038199;28;46672;-61
2022/06/09 12:00:19;;;;;;;6.90;1.30;;;19.50;35.70;;;;;;5030936;28;46749;-61
2022/06/09 12:03:02;;;;;;;5.97;1.20;;;19.30;35.90;;;;;;5030702;28;46422;-61
2022/06/09 12:05:54;;;;;;;3.63;1.30;;;19.20;36.10;;;;;;5028874;28;46303;-61
2022/06/09 12:08:55;;;;;;;5.33;1.60;;;19.00;36.40;;;;;;5037989;28;46810;-62
2022/06/09 12:11:23;;;;;;;5.13;1.20;;;19.00;36.90;;;;;;5028841;28;48417;-61
2022/06/09 12:14:01;;;;;;;3.70;1.17;;;19.10;37.10;;;;;;5032516;28;45768;-61
2022/06/09 12:16:29;;;;;;;3.53;1.20;;;19.40;37.60;;;;;;5028914;28;46320;-61
2022/06/09 12:19:25;;;;;;;3.70;1.00;;;19.50;37.30;;;;;;5028419;28;45924;-61
2022/06/09 12:21:59;;;;;;;7.53;1.40;;;19.80;36.30;;;;;;5027687;28;46386;-61
2022/06/09 12:25:00;;;;;;;2.73;0.90;;;20.30;35.90;;;;;;5034679;28;45838;-61
2022/06/09 12:27:37;;;;;;;4.23;1.20;;;20.70;34.70;;;;;;5031118;28;46472;-61
2022/06/09 12:30:03;;;;;;;5.77;1.10;;;20.90;34.90;;;;;;5033004;28;46480;-62
2022/06/09 12:32:28;;;;;;;4.40;1.10;;;21.10;34.70;;;;;;5030962;28;47222;-62
2022/06/09 12:34:55;;;;;;;4.30;1.20;;;21.40;33.90;;;;;;5031927;28;46500;-61
2022/06/09 12:37:26;;;;;;;9.10;1.83;;;21.40;33.80;;;;;;5030845;28;46429;-62
2022/06/09 12:39:59;;;;;;;3.60;1.27;;;21.60;33.60;;;;;;5032350;28;46471;-61
2022/06/09 12:43:11;;;;;;;4.50;1.50;;;21.40;33.80;;;;;;5033523;28;46453;-61
2022/06/09 12:45:38;;;;;;;9.70;1.30;;;21.30;33.10;;;;;;5024170;28;46502;-62
2022/06/09 12:48:09;;;;;;;3.97;1.10;;;20.90;33.00;;;;;;5032916;28;46390;-60
2022/06/09 12:50:44;;;;;;;6.97;1.43;;;20.70;33.70;;;;;;5029211;28;46486;-60
2022/06/09 12:53:21;;;;;;;4.23;1.43;;;20.60;34.60;;;;;;5033585;28;46453;-60
2022/06/09 12:55:54;;;;;;;3.97;1.23;;;20.40;34.40;;;;;;5030160;28;46320;-61
2022/06/09 12:58:26;;;;;;;3.10;1.20;;;20.10;35.60;;;;;;5032613;28;46789;-61
2022/06/09 13:00:55;;;;;;;11.83;1.43;;;20.00;36.10;;;;;;5031783;28;46465;-60
2022/06/09 13:03:29;;;;;;;5.40;1.50;;;19.80;36.20;;;;;;5031428;28;47117;-60
2022/06/09 13:05:56;;;;;;;5.60;1.20;;;19.60;36.30;;;;;;5036373;28;46393;-61
2022/06/09 13:08:27;;;;;;;5.00;1.27;;;19.60;36.50;;;;;;5037764;28;46493;-61
2022/06/09 13:11:04;;;;;;;5.40;1.70;;;19.70;36.60;;;;;;5032534;28;46350;-61
2022/06/09 13:13:38;;;;;;;3.10;1.23;;;19.80;36.30;;;;;;5031421;28;47168;-61
2022/06/09 13:16:11;;;;;;;4.97;1.20;;;20.20;35.90;;;;;;5031522;28;46330;-64
2022/06/09 13:18:42;;;;;;;3.03;1.27;;;20.10;36.20;;;;;;5030194;28;45789;-66
2022/06/09 13:21:19;;;;;;;4.90;1.40;;;20.00;36.60;;;;;;5031763;28;46582;-63
2022/06/09 13:23:49;;;;;;;4.83;1.23;;;20.00;37.90;;;;;;5032454;28;47146;-62
2022/06/09 13:26:20;;;;;;;5.73;1.20;;;19.90;36.80;;;;;;5030858;28;46670;-62